Time;durP1;ratioP1;P1;durP2;ratioP2;P2;SDS_P1;SDS_P2;PMS_P1;PMS_P2;Temp;Humidity;BMP_temperature;BMP_pressure;BME280_temperature;BME280_humidity;BME280_pressure;Samples;Min_cycle;Max_cycle;Signal;HPM_P1;HPM_P2
2023/07/23 00:00:38;;;;;;;6.10;3.25;;;;;;;27.73;42.36;99419.88;4893112;29;20027;-79
2023/07/23 00:03:04;;;;;;;4.65;3.00;;;;;;;27.74;42.17;99424.22;4898310;29;20107;-80
2023/07/23 00:05:29;;;;;;;7.10;3.42;;;;;;;27.71;42.36;99425.34;4898471;29;20107;-79
2023/07/23 00:07:59;;;;;;;6.35;2.90;;;;;;;27.70;42.54;99417.47;4897856;29;20024;-80
2023/07/23 00:10:25;;;;;;;5.97;3.05;;;;;;;27.70;42.46;99412.13;4883146;29;20089;-80
2023/07/23 00:12:52;;;;;;;5.25;2.95;;;;;;;27.67;42.08;99417.75;4890212;29;20032;-80
2023/07/23 00:15:17;;;;;;;4.80;2.70;;;;;;;27.66;42.03;99413.38;4898412;29;20056;-80
2023/07/23 00:17:43;;;;;;;4.40;2.95;;;;;;;27.66;42.37;99410.69;4897945;29;20055;-80
2023/07/23 00:20:10;;;;;;;4.85;2.72;;;;;;;27.64;42.33;99407.31;4897380;29;20028;-80
2023/07/23 00:22:38;;;;;;;5.10;3.03;;;;;;;27.60;42.72;99412.94;4897378;29;20052;-80
2023/07/23 00:25:05;;;;;;;5.82;3.10;;;;;;;27.61;42.94;99398.53;4898279;29;20059;-80
2023/07/23 00:27:31;;;;;;;4.32;3.05;;;;;;;27.63;43.05;99410.97;4897933;29;20041;-80
2023/07/23 00:29:56;;;;;;;5.68;3.08;;;;;;;27.61;42.77;99401.22;4897728;29;20059;-80
2023/07/23 00:32:22;;;;;;;4.72;3.17;;;;;;;27.60;42.77;99402.22;4886545;29;20396;-80
2023/07/23 00:34:47;;;;;;;6.15;3.45;;;;;;;27.58;43.15;99396.16;4897962;29;20029;-80
2023/07/23 00:37:13;;;;;;;5.32;3.22;;;;;;;27.57;43.20;99402.47;4897974;29;20030;-80
2023/07/23 00:39:39;;;;;;;6.25;3.50;;;;;;;27.54;43.38;99386.66;4897890;29;20462;-79
2023/07/23 00:42:04;;;;;;;5.32;3.63;;;;;;;27.53;43.29;99390.34;4891136;29;20033;-80
2023/07/23 00:44:30;;;;;;;5.75;3.53;;;;;;;27.51;43.25;99384.28;4897768;29;20505;-78
2023/07/23 00:46:57;;;;;;;5.90;3.70;;;;;;;27.53;43.61;99384.97;4890836;29;20047;-80
2023/07/23 00:49:23;;;;;;;7.25;3.60;;;;;;;27.52;43.25;99383.28;4897618;29;20105;-80
2023/07/23 00:51:50;;;;;;;5.05;3.30;;;;;;;27.52;43.51;99383.28;4897151;29;20037;-80
2023/07/23 00:54:15;;;;;;;5.05;3.63;;;;;;;27.50;43.36;99374.53;4895267;29;20040;-80
2023/07/23 00:56:43;;;;;;;5.97;3.42;;;;;;;27.51;43.38;99376.25;4884649;29;20061;-80
2023/07/23 00:59:09;;;;;;;4.93;3.13;;;;;;;27.49;43.57;99383.56;4892730;29;20417;-80
2023/07/23 01:01:35;;;;;;;5.03;3.30;;;;;;;27.50;43.77;99379.88;4897215;29;20142;-80
2023/07/23 01:04:00;;;;;;;5.28;3.50;;;;;;;27.48;43.32;99374.69;4897572;29;20028;-79
2023/07/23 01:06:27;;;;;;;6.40;3.38;;;;;;;27.49;43.65;99370.16;4897464;29;20084;-80
2023/07/23 01:08:56;;;;;;;5.80;3.40;;;;;;;27.45;43.33;99374.94;4892643;29;20548;-80
2023/07/23 01:11:23;;;;;;;5.45;3.40;;;;;;;27.42;43.41;99366.34;4897520;29;20040;-80
2023/07/23 01:13:51;;;;;;;4.03;2.85;;;;;;;27.42;42.95;99361.84;4897050;29;20385;-80
2023/07/23 01:16:17;;;;;;;4.97;3.58;;;;;;;27.42;43.22;99366.34;4896885;29;20047;-80
2023/07/23 01:18:43;;;;;;;5.25;3.03;;;;;;;27.38;43.32;99359.56;4896899;29;20024;-80
2023/07/23 01:21:10;;;;;;;5.90;3.10;;;;;;;27.33;43.12;99359.97;4885756;29;20032;-79
2023/07/23 01:23:36;;;;;;;5.45;3.33;;;;;;;27.29;43.08;99362.09;4897181;29;20065;-79
2023/07/23 01:26:03;;;;;;;6.18;3.42;;;;;;;27.24;42.99;99358.97;4896917;29;20055;-80
2023/07/23 01:28:28;;;;;;;6.18;3.60;;;;;;;27.20;43.49;99352.19;4897163;29;20033;-80
2023/07/23 01:30:55;;;;;;;6.03;3.72;;;;;;;27.14;43.73;99353.59;4895998;29;20072;-80
2023/07/23 01:33:21;;;;;;;7.18;4.13;;;;;;;27.12;43.75;99349.34;4896727;29;20041;-80
2023/07/23 01:35:46;;;;;;;7.93;4.00;;;;;;;27.06;43.99;99348.91;4896934;29;20542;-80
2023/07/23 01:38:14;;;;;;;6.30;3.95;;;;;;;27.00;44.41;99345.94;4896837;29;20137;-80
2023/07/23 01:40:40;;;;;;;6.40;3.80;;;;;;;27.02;44.28;99339.44;4896700;29;20032;-80
2023/07/23 01:43:06;;;;;;;6.32;4.10;;;;;;;27.02;44.39;99338.63;4896918;29;20100;-80
2023/07/23 01:45:32;;;;;;;7.65;4.50;;;;;;;26.95;44.69;99338.31;4896005;29;20549;-79
2023/07/23 01:47:57;;;;;;;6.38;4.53;;;;;;;26.92;44.71;99330.56;4892584;29;20056;-81
2023/07/23 01:50:23;;;;;;;6.18;3.97;;;;;;;26.90;44.90;99319.09;4896809;29;20031;-80
2023/07/23 01:52:48;;;;;;;6.95;4.28;;;;;;;26.90;44.97;99319.09;4896501;29;20549;-80
2023/07/23 01:55:14;;;;;;;6.45;4.20;;;;;;;26.90;45.19;99316.41;4895379;29;20032;-81
2023/07/23 01:57:39;;;;;;;5.80;4.07;;;;;;;26.90;45.22;99313.75;4896553;29;20028;-80
2023/07/23 02:00:05;;;;;;;6.35;4.30;;;;;;;26.94;44.82;99309.84;4896220;29;20051;-80
2023/07/23 02:02:31;;;;;;;5.97;4.43;;;;;;;26.95;45.16;99306.19;4896561;29;20036;-80
2023/07/23 02:04:56;;;;;;;6.30;4.25;;;;;;;26.95;45.13;99311.53;4896491;29;20537;-80
2023/07/23 02:07:22;;;;;;;6.85;4.40;;;;;;;26.96;44.87;99313.22;4896494;29;20563;-80
2023/07/23 02:09:50;;;;;;;6.05;4.20;;;;;;;26.95;45.37;99308.84;4896269;29;20049;-80
2023/07/23 02:12:16;;;;;;;7.18;4.50;;;;;;;26.96;45.11;99313.22;4896428;29;20024;-80
2023/07/23 02:14:42;;;;;;;7.25;4.20;;;;;;;26.99;44.88;99306.75;4896124;29;20374;-81
2023/07/23 02:17:07;;;;;;;5.72;3.83;;;;;;;26.99;45.26;99304.94;4895177;29;20032;-80
2023/07/23 02:19:33;;;;;;;5.38;4.00;;;;;;;26.98;45.19;99305.91;4896514;29;20478;-80
2023/07/23 02:21:58;;;;;;;8.38;4.15;;;;;;;27.00;45.00;99309.31;4896448;29;20068;-80
2023/07/23 02:24:24;;;;;;;6.68;4.25;;;;;;;26.96;45.11;99302.50;4896202;29;20037;-80
2023/07/23 02:26:49;;;;;;;5.82;3.95;;;;;;;26.93;45.17;99300.94;4896021;29;20029;-80
2023/07/23 02:29:14;;;;;;;6.70;4.10;;;;;;;26.89;45.50;99296.84;4895889;29;20401;-80
2023/07/23 02:31:41;;;;;;;5.85;4.13;;;;;;;26.89;45.63;99287.97;4896265;29;20025;-80
2023/07/23 02:34:07;;;;;;;5.40;3.85;;;;;;;26.86;45.57;99301.59;4896255;29;20033;-80
2023/07/23 02:36:34;;;;;;;6.38;4.88;;;;;;;26.85;46.06;99294.56;4896278;29;20025;-80
2023/07/23 02:39:00;;;;;;;5.75;3.70;;;;;;;26.80;45.75;99287.81;4895076;29;20036;-80
2023/07/23 02:41:25;;;;;;;6.22;4.00;;;;;;;26.75;46.56;99290.03;4896204;29;20052;-80
2023/07/23 02:43:51;;;;;;;6.82;4.13;;;;;;;26.75;46.07;99290.03;4897807;29;20375;-80
2023/07/23 02:46:16;;;;;;;5.80;4.30;;;;;;;26.72;46.39;99284.13;4896686;29;20242;-80
2023/07/23 02:48:42;;;;;;;6.13;4.20;;;;;;;26.70;46.72;99286.91;4898434;29;20037;-80
2023/07/23 02:51:07;;;;;;;6.60;4.10;;;;;;;26.64;46.87;99282.09;4898438;29;20037;-80
2023/07/23 02:53:32;;;;;;;5.45;4.00;;;;;;;26.63;47.10;99283.94;4899363;29;20627;-80
2023/07/23 02:55:58;;;;;;;7.82;4.60;;;;;;;26.63;46.92;99285.78;4897267;29;20528;-80
2023/07/23 02:58:24;;;;;;;6.35;4.53;;;;;;;26.59;46.98;99281.66;4896987;29;20024;-80
2023/07/23 03:00:49;;;;;;;7.80;4.80;;;;;;;26.60;47.15;99286.03;4897734;29;20516;-80
2023/07/23 03:03:15;;;;;;;6.80;4.30;;;;;;;26.59;47.51;99277.16;4898325;29;20032;-80
2023/07/23 03:05:44;;;;;;;7.13;4.53;;;;;;;26.60;47.29;99278.00;4899321;29;20027;-80
2023/07/23 03:08:10;;;;;;;8.77;4.70;;;;;;;26.61;47.36;99277.00;4899073;29;20029;-80
2023/07/23 03:10:35;;;;;;;6.68;4.68;;;;;;;26.62;47.38;99286.72;4899639;29;20031;-79
2023/07/23 03:13:01;;;;;;;6.95;4.85;;;;;;;26.57;47.67;99278.28;4898906;29;20080;-80
2023/07/23 03:15:26;;;;;;;7.22;4.40;;;;;;;26.58;47.77;99288.00;4899140;29;20477;-80
2023/07/23 03:17:51;;;;;;;7.13;4.90;;;;;;;26.58;47.79;99279.97;4899135;29;20056;-80
2023/07/23 03:20:18;;;;;;;6.03;4.50;;;;;;;26.57;47.97;99278.28;4899167;29;20025;-80
2023/07/23 03:22:44;;;;;;;9.18;4.72;;;;;;;26.54;48.11;99272.22;4898956;29;20099;-80
2023/07/23 03:25:09;;;;;;;7.75;4.88;;;;;;;26.56;47.92;99284.59;4897749;29;20176;-80
2023/07/23 03:27:35;;;;;;;6.40;4.63;;;;;;;26.54;47.93;99279.41;4898554;29;20048;-80
2023/07/23 03:30:01;;;;;;;7.13;4.47;;;;;;;26.56;47.92;99273.91;4897616;29;20119;-81
2023/07/23 03:32:26;;;;;;;7.15;4.97;;;;;;;26.51;48.16;99277.84;4895116;29;20549;-81
2023/07/23 03:34:51;;;;;;;8.10;4.82;;;;;;;26.51;48.43;99282.34;4897962;29;20111;-81
2023/07/23 03:37:17;;;;;;;8.80;4.78;;;;;;;26.51;48.16;99277.84;4898684;29;20381;-80
2023/07/23 03:39:42;;;;;;;6.97;4.72;;;;;;;26.52;48.07;99276.84;4898785;29;20111;-81
2023/07/23 03:42:08;;;;;;;9.98;4.50;;;;;;;26.53;48.06;99275.00;4898376;29;20025;-80
2023/07/23 03:44:33;;;;;;;6.03;4.22;;;;;;;26.53;48.03;99275.88;4898525;29;20032;-81
2023/07/23 03:47:09;;;;;;;7.30;4.88;;;;;;;26.52;48.22;99267.97;4892671;29;20096;-81
2023/07/23 03:49:34;;;;;;;6.50;4.15;;;;;;;26.53;48.10;99275.00;4895520;29;20025;-80
2023/07/23 03:51:59;;;;;;;6.93;4.63;;;;;;;26.51;48.26;99267.13;4897210;29;20040;-80
2023/07/23 03:54:25;;;;;;;7.03;4.72;;;;;;;26.51;48.12;99267.13;4897583;29;20405;-81
2023/07/23 03:56:52;;;;;;;6.47;4.80;;;;;;;26.51;48.11;99263.59;4898157;29;20104;-80
2023/07/23 03:59:17;;;;;;;6.53;4.68;;;;;;;26.52;48.16;99262.63;4894420;29;20036;-80
2023/07/23 04:01:43;;;;;;;6.03;4.20;;;;;;;26.53;48.11;99270.50;4898574;29;20024;-80
2023/07/23 04:04:08;;;;;;;6.72;4.53;;;;;;;26.53;47.92;99265.16;4898337;29;20036;-80
2023/07/23 04:06:33;;;;;;;6.55;4.15;;;;;;;26.51;47.51;99267.13;4898113;29;20024;-80
2023/07/23 04:08:59;;;;;;;6.22;4.38;;;;;;;26.52;47.53;99268.81;4897987;29;20081;-80
2023/07/23 04:11:24;;;;;;;6.53;4.00;;;;;;;26.50;47.22;99257.44;4897799;29;20430;-80
2023/07/23 04:13:50;;;;;;;6.60;3.92;;;;;;;26.51;46.99;99267.13;4896779;29;20021;-81
2023/07/23 04:16:15;;;;;;;6.38;3.97;;;;;;;26.51;46.71;99271.63;4897841;29;20043;-80
2023/07/23 04:18:46;;;;;;;6.85;3.85;;;;;;;26.47;46.83;99273.72;4897794;29;20084;-80
2023/07/23 04:21:12;;;;;;;5.72;3.50;;;;;;;26.48;47.06;99280.78;4897662;29;20099;-80
2023/07/23 04:23:38;;;;;;;5.28;3.35;;;;;;;26.47;46.95;99276.41;4897580;29;20020;-80
2023/07/23 04:26:03;;;;;;;5.43;3.78;;;;;;;26.46;46.76;99280.06;4895900;29;20064;-80
2023/07/23 04:28:28;;;;;;;6.82;3.72;;;;;;;26.48;47.07;99283.44;4890738;29;20406;-80
2023/07/23 04:30:54;;;;;;;6.80;3.63;;;;;;;26.48;46.98;99277.25;4893732;29;20023;-80
2023/07/23 04:33:20;;;;;;;5.65;3.58;;;;;;;26.47;47.14;99281.75;4897712;29;20025;-79
2023/07/23 04:35:45;;;;;;;6.38;4.15;;;;;;;26.49;46.76;99285.13;4897546;29;20017;-80
2023/07/23 04:38:11;;;;;;;5.72;3.95;;;;;;;26.48;46.75;99283.44;4896408;29;20031;-80
2023/07/23 04:40:36;;;;;;;5.38;3.75;;;;;;;26.48;46.57;99283.44;4897350;29;20434;-79
2023/07/23 04:43:03;;;;;;;5.80;4.35;;;;;;;26.48;46.95;99282.63;4897654;29;20103;-80
2023/07/23 04:45:29;;;;;;;5.30;3.75;;;;;;;26.43;47.09;99285.66;4897395;29;20028;-80
2023/07/23 04:47:55;;;;;;;7.10;4.15;;;;;;;26.40;46.90;99277.94;4892182;29;20025;-80
2023/07/23 04:50:20;;;;;;;5.63;4.03;;;;;;;26.44;46.66;99282.00;4897384;29;20371;-80
2023/07/23 04:52:46;;;;;;;5.82;3.85;;;;;;;26.43;47.00;99280.31;4897505;29;20031;-81
2023/07/23 04:55:11;;;;;;;6.22;4.28;;;;;;;26.44;46.78;99287.34;4897198;29;20024;-80
2023/07/23 04:57:38;;;;;;;7.70;3.90;;;;;;;26.46;46.60;99277.41;4895909;29;20052;-80
2023/07/23 05:00:06;;;;;;;7.22;4.10;;;;;;;26.46;46.90;99274.72;4897334;29;20043;-80
2023/07/23 05:02:31;;;;;;;7.03;3.85;;;;;;;26.46;46.86;99280.06;4895946;29;20112;-79
2023/07/23 05:04:57;;;;;;;6.30;4.07;;;;;;;26.47;46.95;99279.09;4895773;29;20037;-80
2023/07/23 05:07:22;;;;;;;6.30;3.75;;;;;;;26.45;46.80;99265.00;4896625;29;20414;-80
2023/07/23 05:09:48;;;;;;;5.78;4.10;;;;;;;26.48;46.84;99267.41;4896700;29;20131;-80
2023/07/23 05:12:13;;;;;;;5.72;3.97;;;;;;;26.47;47.20;99260.34;4896916;29;20064;-80
2023/07/23 05:14:38;;;;;;;6.65;4.60;;;;;;;26.48;47.13;99259.38;4897135;29;20024;-80
2023/07/23 05:17:04;;;;;;;7.28;4.35;;;;;;;26.46;47.19;99253.31;4897207;29;20027;-80
2023/07/23 05:19:30;;;;;;;6.43;4.35;;;;;;;26.47;47.23;99255.00;4896906;29;20091;-80
2023/07/23 05:21:56;;;;;;;7.05;4.63;;;;;;;26.49;46.94;99258.38;4896560;29;20554;-80
2023/07/23 05:24:22;;;;;;;6.35;4.20;;;;;;;26.47;47.14;99267.53;4896906;29;20081;-80
2023/07/23 05:26:47;;;;;;;6.68;4.47;;;;;;;26.44;47.27;99252.59;4895544;29;20037;-80
2023/07/23 05:29:13;;;;;;;6.32;4.10;;;;;;;26.44;47.28;99265.97;4896875;29;20033;-80
2023/07/23 05:31:38;;;;;;;6.60;4.18;;;;;;;26.43;47.06;99258.91;4896933;29;20076;-80
2023/07/23 05:34:03;;;;;;;5.72;3.92;;;;;;;26.43;46.78;99258.91;4896600;29;20025;-80
2023/07/23 05:36:29;;;;;;;5.38;3.70;;;;;;;26.44;46.96;99252.59;4896482;29;20021;-80
2023/07/23 05:38:54;;;;;;;6.05;3.67;;;;;;;26.43;47.00;99253.56;4896716;29;20052;-80
2023/07/23 05:41:20;;;;;;;5.55;3.72;;;;;;;26.41;46.81;99250.19;4896687;29;20063;-80
2023/07/23 05:43:45;;;;;;;8.45;4.22;;;;;;;26.41;46.80;99250.19;4896755;29;20029;-80
2023/07/23 05:46:10;;;;;;;5.70;3.75;;;;;;;26.42;46.61;99243.84;4893494;29;20025;-80
2023/07/23 05:48:36;;;;;;;7.80;3.80;;;;;;;26.39;46.64;99241.47;4896237;29;20021;-80
2023/07/23 05:51:01;;;;;;;8.10;4.40;;;;;;;26.33;46.68;99242.00;4896354;29;20393;-80
2023/07/23 05:53:27;;;;;;;5.80;3.45;;;;;;;26.35;46.70;99248.06;4896793;29;20214;-80
2023/07/23 05:55:52;;;;;;;7.05;3.83;;;;;;;26.35;46.72;99246.22;4895452;29;20024;-80
2023/07/23 05:58:17;;;;;;;5.22;3.65;;;;;;;26.31;46.94;99238.59;4896667;29;20477;-80
2023/07/23 06:00:43;;;;;;;6.22;3.70;;;;;;;26.32;46.60;99242.97;4896667;29;20048;-80
2023/07/23 06:03:08;;;;;;;6.43;3.90;;;;;;;26.30;46.60;99243.13;4896701;29;20020;-80
2023/07/23 06:05:34;;;;;;;4.57;3.25;;;;;;;26.31;46.64;99243.94;4894983;29;20025;-80
2023/07/23 06:07:59;;;;;;;5.93;3.17;;;;;;;26.32;46.84;99240.28;4896405;29;20060;-80
2023/07/23 06:10:25;;;;;;;5.65;3.70;;;;;;;26.29;46.99;99245.91;4895320;29;20028;-80
2023/07/23 06:12:51;;;;;;;6.85;3.92;;;;;;;26.30;47.00;99256.50;4896678;29;20477;-80
2023/07/23 06:15:16;;;;;;;6.00;3.45;;;;;;;26.31;47.00;99251.97;4896116;29;20037;-80
2023/07/23 06:17:42;;;;;;;5.60;3.65;;;;;;;26.29;46.76;99256.63;4896642;29;20027;-80
2023/07/23 06:20:08;;;;;;;6.05;3.83;;;;;;;26.30;47.23;99252.97;4899893;29;20040;-80
2023/07/23 06:22:33;;;;;;;5.25;3.20;;;;;;;26.27;47.01;99254.94;4895868;29;20025;-80
2023/07/23 06:24:58;;;;;;;7.13;3.53;;;;;;;26.30;47.16;99250.28;4899870;29;20087;-80
2023/07/23 06:27:24;;;;;;;5.70;3.53;;;;;;;26.28;47.12;99250.41;4900371;29;20025;-79
2023/07/23 06:29:49;;;;;;;6.65;3.80;;;;;;;26.29;47.12;99252.09;4899981;29;20485;-79
2023/07/23 06:32:15;;;;;;;6.65;3.60;;;;;;;26.30;47.19;99247.59;4899870;29;20114;-80
2023/07/23 06:34:41;;;;;;;6.03;3.63;;;;;;;26.28;47.13;99245.06;4899514;29;20032;-80
2023/07/23 06:37:06;;;;;;;6.43;3.70;;;;;;;26.33;47.00;99247.34;4900008;29;20033;-80
2023/07/23 06:39:33;;;;;;;5.63;4.00;;;;;;;26.30;47.33;99239.59;4899780;29;20035;-79
2023/07/23 06:41:58;;;;;;;6.45;3.70;;;;;;;26.33;47.55;99236.66;4899934;29;20020;-79
2023/07/23 06:44:24;;;;;;;6.95;4.10;;;;;;;26.32;47.25;99240.28;4899606;29;20032;-80
2023/07/23 06:46:49;;;;;;;5.35;3.72;;;;;;;26.35;47.67;99237.34;4894295;29;20040;-80
2023/07/23 06:49:15;;;;;;;6.28;4.22;;;;;;;26.33;47.58;99242.00;4896425;29;20565;-80
2023/07/23 06:51:40;;;;;;;7.97;4.30;;;;;;;26.36;47.40;99247.06;4899600;29;20095;-80
2023/07/23 06:54:05;;;;;;;6.03;3.78;;;;;;;26.35;47.50;99253.41;4899842;29;20032;-80
2023/07/23 06:56:31;;;;;;;6.30;4.30;;;;;;;26.36;47.46;99249.75;4899529;29;20495;-80
2023/07/23 06:58:56;;;;;;;6.82;4.45;;;;;;;26.37;47.78;99254.09;4895465;29;20029;-79
2023/07/23 07:01:22;;;;;;;5.82;3.80;;;;;;;26.36;47.66;99249.75;4899513;29;20049;-79
2023/07/23 07:03:47;;;;;;;7.20;4.00;;;;;;;26.38;47.74;99255.78;4899106;29;20029;-80
2023/07/23 07:06:13;;;;;;;7.10;4.10;;;;;;;26.40;47.77;99253.84;4897493;29;20067;-80
2023/07/23 07:08:38;;;;;;;6.35;3.95;;;;;;;26.40;48.04;99261.88;4895239;29;20041;-80
2023/07/23 07:11:09;;;;;;;7.43;4.22;;;;;;;26.42;47.88;99257.22;4897836;29;20040;-80
2023/07/23 07:13:35;;;;;;;5.53;3.80;;;;;;;26.45;47.86;99248.09;4899074;29;20036;-81
2023/07/23 07:16:01;;;;;;;6.53;4.20;;;;;;;26.43;47.89;99245.53;4899095;29;20048;-80
2023/07/23 07:18:26;;;;;;;7.13;4.38;;;;;;;26.47;47.54;99249.66;4898690;29;20039;-80
2023/07/23 07:20:59;;;;;;;7.45;4.00;;;;;;;26.46;47.81;99242.63;4899172;29;20027;-80
2023/07/23 07:23:26;;;;;;;6.07;4.18;;;;;;;26.48;47.71;99243.31;4899034;29;20029;-80
2023/07/23 07:25:53;;;;;;;6.65;4.32;;;;;;;26.50;47.69;99249.41;4899079;29;20024;-80
2023/07/23 07:28:18;;;;;;;6.90;4.00;;;;;;;26.53;47.35;99249.13;4898276;29;20482;-80
2023/07/23 07:30:43;;;;;;;8.60;4.15;;;;;;;26.52;47.47;99242.06;4898441;29;20035;-80
2023/07/23 07:33:09;;;;;;;6.97;3.80;;;;;;;26.54;47.59;99241.94;4898504;29;20129;-80
2023/07/23 07:35:34;;;;;;;5.65;4.10;;;;;;;26.54;48.02;99244.63;4898374;29;20385;-78
2023/07/23 07:38:00;;;;;;;4.45;3.33;;;;;;;26.56;47.43;99244.47;4898715;29;20104;-78
2023/07/23 07:40:27;;;;;;;6.03;4.00;;;;;;;26.56;47.51;99247.13;4898935;29;20525;-77
2023/07/23 07:42:53;;;;;;;5.30;3.42;;;;;;;26.59;47.32;99236.19;4898769;29;20104;-79
2023/07/23 07:45:18;;;;;;;5.55;3.78;;;;;;;26.59;47.31;99239.72;4898525;29;20107;-78
2023/07/23 07:47:43;;;;;;;5.85;3.85;;;;;;;26.61;47.23;99239.56;4893810;29;20032;-79
2023/07/23 07:50:09;;;;;;;6.13;3.92;;;;;;;26.64;46.93;99234.78;4894464;29;20481;-79
2023/07/23 07:52:34;;;;;;;5.43;3.45;;;;;;;26.63;47.37;99238.44;4898355;29;20557;-79
2023/07/23 07:55:00;;;;;;;6.43;4.25;;;;;;;26.63;47.12;99229.56;4898205;29;20092;-78
2023/07/23 07:57:26;;;;;;;4.68;3.20;;;;;;;26.63;47.39;99234.94;4898224;29;20032;-79
2023/07/23 07:59:52;;;;;;;5.13;3.30;;;;;;;26.63;47.36;99232.25;4894103;29;20043;-79
2023/07/23 08:02:18;;;;;;;6.13;3.20;;;;;;;26.63;47.37;99224.22;4898012;29;20493;-78
2023/07/23 08:04:43;;;;;;;4.90;3.60;;;;;;;26.65;47.05;99230.28;4895168;29;20406;-78
2023/07/23 08:07:09;;;;;;;6.82;3.90;;;;;;;26.64;47.30;99228.59;4895238;29;20028;-79
2023/07/23 08:09:37;;;;;;;7.10;3.72;;;;;;;26.65;47.06;99225.78;4896484;29;20083;-79
2023/07/23 08:12:05;;;;;;;6.43;4.15;;;;;;;26.67;47.03;99226.47;4894423;29;20028;-78
2023/07/23 08:14:33;;;;;;;6.90;3.58;;;;;;;26.68;47.35;99219.28;4898227;29;20433;-79
2023/07/23 08:16:59;;;;;;;5.35;3.95;;;;;;;26.68;47.63;99213.94;4897289;29;20024;-80
2023/07/23 08:19:25;;;;;;;5.40;3.90;;;;;;;26.72;47.50;99212.69;4897746;29;20028;-79
2023/07/23 08:21:50;;;;;;;7.65;4.35;;;;;;;26.72;47.02;99206.50;4896247;29;20035;-78
2023/07/23 08:24:16;;;;;;;6.78;3.67;;;;;;;26.72;47.50;99204.66;4897734;29;20084;-77
2023/07/23 08:26:43;;;;;;;5.30;3.70;;;;;;;26.73;47.26;99211.69;4897389;29;20473;-84
2023/07/23 08:29:09;;;;;;;6.97;4.65;;;;;;;26.75;47.36;99209.75;4897550;29;20111;-78
2023/07/23 08:31:34;;;;;;;6.25;3.70;;;;;;;26.76;47.35;99211.44;4897281;29;20126;-77
2023/07/23 08:34:03;;;;;;;6.68;4.22;;;;;;;26.77;47.11;99214.94;4897585;29;20054;-77
2023/07/23 08:36:30;;;;;;;7.22;4.35;;;;;;;26.77;47.36;99210.44;4897718;29;20565;-77
2023/07/23 08:38:55;;;;;;;5.72;3.75;;;;;;;26.78;47.49;99209.44;4897415;29;20040;-78
2023/07/23 08:41:36;;;;;;;6.95;4.60;;;;;;;26.79;47.24;99197.75;4896913;29;20039;-76
2023/07/23 08:44:17;;;;;;;8.70;4.60;;;;;;;26.84;46.80;99197.38;4897330;29;20032;-77
2023/07/23 08:46:46;;;;;;;6.50;3.88;;;;;;;26.86;46.93;99202.56;4892947;29;20186;-76
2023/07/23 08:49:15;;;;;;;6.97;4.60;;;;;;;26.87;47.08;99196.25;4892501;29;20036;-77
2023/07/23 08:51:43;;;;;;;9.48;3.92;;;;;;;26.88;46.87;99181.88;4897265;29;20025;-77
2023/07/23 08:54:10;;;;;;;6.60;3.95;;;;;;;26.90;47.28;99182.56;4897256;29;20027;-77
2023/07/23 08:56:37;;;;;;;6.30;3.72;;;;;;;26.91;47.27;99186.94;4897516;29;20025;-77
2023/07/23 08:59:04;;;;;;;6.45;3.95;;;;;;;26.91;47.46;99189.59;4897292;29;20029;-76
2023/07/23 09:01:38;;;;;;;9.10;4.60;;;;;;;26.93;46.77;99174.31;4890533;29;20025;-77
2023/07/23 09:04:06;;;;;;;7.38;4.35;;;;;;;26.94;46.63;99173.31;4893644;29;20033;-77
2023/07/23 09:06:31;;;;;;;5.47;4.15;;;;;;;26.94;47.10;99181.34;4897261;29;20426;-76
2023/07/23 09:09:03;;;;;;;6.13;4.13;;;;;;;26.96;47.06;99179.34;4896989;29;20128;-77
2023/07/23 09:11:28;;;;;;;5.82;4.10;;;;;;;26.98;46.68;99166.69;4897166;29;20035;-76
2023/07/23 09:13:58;;;;;;;8.30;4.70;;;;;;;27.00;46.91;99164.72;4896622;29;20013;-78
2023/07/23 09:16:24;;;;;;;6.25;4.30;;;;;;;27.01;46.79;99155.69;4896530;29;20029;-76
2023/07/23 09:18:50;;;;;;;6.60;4.40;;;;;;;27.03;46.90;99153.72;4896725;29;20025;-77
2023/07/23 09:21:27;;;;;;;5.78;3.80;;;;;;;27.06;46.81;99157.94;4897021;29;20031;-77
2023/07/23 09:23:54;;;;;;;6.20;3.53;;;;;;;27.08;46.77;99155.97;4896889;29;20095;-77
2023/07/23 09:26:23;;;;;;;8.00;3.92;;;;;;;27.10;46.80;99158.53;4896857;29;20096;-77
2023/07/23 09:28:50;;;;;;;5.85;3.92;;;;;;;27.11;46.69;99170.94;4896524;29;20149;-77
2023/07/23 09:31:22;;;;;;;6.90;4.15;;;;;;;27.13;46.31;99169.81;4896947;29;20137;-76
2023/07/23 09:33:51;;;;;;;7.20;4.13;;;;;;;27.15;46.66;99161.59;4896690;29;20017;-77
2023/07/23 09:36:16;;;;;;;5.72;3.90;;;;;;;27.17;46.34;99154.28;4896714;29;20043;-77
2023/07/23 09:38:51;;;;;;;6.93;4.00;;;;;;;27.18;46.50;99155.97;4896644;29;20029;-77
2023/07/23 09:41:17;;;;;;;5.40;3.90;;;;;;;27.18;46.65;99151.47;4896363;29;20493;-74
2023/07/23 09:43:42;;;;;;;6.20;3.92;;;;;;;27.21;46.28;99150.31;4891994;29;20029;-76
2023/07/23 09:46:08;;;;;;;6.63;3.78;;;;;;;27.22;46.12;99141.31;4895318;29;20033;-78
2023/07/23 09:48:33;;;;;;;7.97;3.97;;;;;;;27.23;46.09;99142.16;4896635;29;20028;-78
2023/07/23 09:51:00;;;;;;;6.30;3.63;;;;;;;27.25;46.59;99146.38;4892232;29;20032;-78
2023/07/23 09:53:29;;;;;;;6.95;3.72;;;;;;;27.27;46.48;99143.56;4893825;29;20531;-79
2023/07/23 09:55:55;;;;;;;9.90;4.38;;;;;;;27.29;46.38;99141.56;4889978;29;20084;-78
2023/07/23 09:58:23;;;;;;;9.88;4.30;;;;;;;27.29;46.33;99137.06;4885755;29;20142;-79
2023/07/23 10:00:49;;;;;;;6.50;3.97;;;;;;;27.31;46.34;99135.09;4896125;29;20064;-78
2023/07/23 10:03:17;;;;;;;8.05;3.95;;;;;;;27.32;46.46;99131.41;4894788;29;20468;-79
2023/07/23 10:05:42;;;;;;;7.22;3.95;;;;;;;27.34;46.14;99129.47;4888849;29;20033;-79
2023/07/23 10:08:08;;;;;;;11.40;4.53;;;;;;;27.36;46.19;99123.09;4896849;29;20115;-79
2023/07/23 10:10:33;;;;;;;7.50;3.63;;;;;;;27.36;46.20;99125.78;4896859;29;20032;-80
2023/07/23 10:12:58;;;;;;;6.97;4.15;;;;;;;27.39;46.21;99126.34;4890778;29;20174;-79
2023/07/23 10:15:24;;;;;;;6.57;3.63;;;;;;;27.42;46.54;99119.84;4898821;29;20029;-79
2023/07/23 10:17:54;;;;;;;5.88;4.03;;;;;;;27.44;46.09;99117.84;4894357;29;20036;-79
2023/07/23 10:20:21;;;;;;;6.63;4.30;;;;;;;27.45;46.45;99114.22;4889006;29;20096;-79
2023/07/23 10:22:48;;;;;;;7.28;3.75;;;;;;;27.46;46.67;99111.38;4895384;29;20016;-78
2023/07/23 10:25:30;;;;;;;5.78;3.78;;;;;;;27.48;46.42;99111.22;4898401;29;20545;-79
2023/07/23 10:28:00;;;;;;;5.88;3.80;;;;;;;27.50;46.22;99106.56;4896507;29;20029;-78
2023/07/23 10:30:27;;;;;;;7.75;3.55;;;;;;;27.51;46.60;99100.25;4893504;29;20516;-79
2023/07/23 10:33:11;;;;;;;5.85;3.50;;;;;;;27.53;46.51;99095.56;4896551;29;20033;-79
2023/07/23 10:35:48;;;;;;;5.75;3.85;;;;;;;27.55;46.55;99096.25;4893776;29;20037;-79
2023/07/23 10:38:24;;;;;;;6.93;4.03;;;;;;;27.56;46.33;99095.25;4890533;29;20029;-79
2023/07/23 10:40:50;;;;;;;5.70;3.30;;;;;;;27.56;46.24;99089.91;4893081;29;20039;-79
2023/07/23 10:43:16;;;;;;;5.03;3.30;;;;;;;27.59;46.50;99089.66;4895501;29;20036;-79
2023/07/23 10:45:51;;;;;;;6.80;3.58;;;;;;;27.63;46.57;99084.00;4894553;29;20474;-79
2023/07/23 10:48:17;;;;;;;5.57;3.88;;;;;;;27.61;46.38;99082.31;4893469;29;20036;-79
2023/07/23 10:51:02;;;;;;;5.45;4.20;;;;;;;27.65;46.65;99087.38;4896482;29;20035;-73
2023/07/23 10:53:31;;;;;;;5.57;3.45;;;;;;;27.65;46.40;99076.66;4895456;29;20148;-83
2023/07/23 10:55:59;;;;;;;6.03;3.75;;;;;;;27.68;46.27;99076.34;4895224;29;20107;-79
2023/07/23 10:58:26;;;;;;;5.38;3.50;;;;;;;27.70;46.61;99071.72;4896183;29;20032;-79
2023/07/23 11:00:57;;;;;;;7.10;3.90;;;;;;;27.71;46.80;99071.53;4889729;29;20061;-80
2023/07/23 11:03:24;;;;;;;10.05;4.15;;;;;;;27.74;46.90;99059.69;4890740;29;20049;-80
2023/07/23 11:05:52;;;;;;;11.27;4.63;;;;;;;27.74;47.10;99070.41;4895600;29;20032;-80
2023/07/23 11:08:24;;;;;;;10.57;4.30;;;;;;;27.75;47.06;99061.41;4894553;29;20139;-81
2023/07/23 11:10:56;;;;;;;12.13;4.10;;;;;;;27.77;47.12;99062.06;4895602;29;20185;-79
2023/07/23 11:13:23;;;;;;;11.27;4.35;;;;;;;27.79;46.85;99057.41;4889531;29;20402;-80
2023/07/23 11:15:48;;;;;;;11.45;4.43;;;;;;;27.81;46.41;99050.06;4892971;29;20037;-80
2023/07/23 11:18:14;;;;;;;8.90;4.50;;;;;;;27.83;46.66;99047.22;4887691;29;20129;-80
2023/07/23 11:20:47;;;;;;;7.18;4.57;;;;;;;27.86;46.40;99042.44;4894697;29;20088;-79
2023/07/23 11:23:14;;;;;;;8.05;5.28;;;;;;;27.90;46.33;99039.44;4894296;29;20374;-81
2023/07/23 11:25:40;;;;;;;7.15;4.53;;;;;;;27.92;45.82;99040.97;4888173;29;20512;-81
2023/07/23 11:28:09;;;;;;;7.78;4.82;;;;;;;27.94;45.63;99032.78;4890158;29;20028;-80
2023/07/23 11:30:35;;;;;;;7.20;4.72;;;;;;;27.97;45.70;99027.13;4893495;29;20028;-81